sensor_id;sensor_type;location;lat;lon;timestamp;P1;durP1;ratioP1;P2;durP2;ratioP2
79414;SDS011;68864;44.972;19.612;2023-05-29T00:00:58;5.45;;;4.50;;
79414;SDS011;68864;44.972;19.612;2023-05-29T00:03:25;4.30;;;3.80;;
79414;SDS011;68864;44.972;19.612;2023-05-29T00:05:52;5.80;;;4.80;;
79414;SDS011;68864;44.972;19.612;2023-05-29T00:08:18;6.75;;;5.68;;
79414;SDS011;68864;44.972;19.612;2023-05-29T00:10:45;4.97;;;4.47;;
79414;SDS011;68864;44.972;19.612;2023-05-29T00:13:13;7.78;;;5.65;;
79414;SDS011;68864;44.972;19.612;2023-05-29T00:15:40;7.05;;;6.00;;
79414;SDS011;68864;44.972;19.612;2023-05-29T00:18:07;9.68;;;3.97;;
79414;SDS011;68864;44.972;19.612;2023-05-29T00:20:34;5.95;;;5.30;;
79414;SDS011;68864;44.972;19.612;2023-05-29T00:25:29;7.05;;;6.40;;
79414;SDS011;68864;44.972;19.612;2023-05-29T00:27:56;5.40;;;4.30;;
79414;SDS011;68864;44.972;19.612;2023-05-29T00:30:24;6.13;;;4.90;;
79414;SDS011;68864;44.972;19.612;2023-05-29T00:32:51;6.68;;;4.90;;
79414;SDS011;68864;44.972;19.612;2023-05-29T00:35:19;7.38;;;6.43;;
79414;SDS011;68864;44.972;19.612;2023-05-29T00:37:45;5.95;;;4.38;;
79414;SDS011;68864;44.972;19.612;2023-05-29T00:40:12;7.43;;;5.40;;
79414;SDS011;68864;44.972;19.612;2023-05-29T00:42:39;5.68;;;4.32;;
79414;SDS011;68864;44.972;19.612;2023-05-29T00:45:06;5.00;;;4.22;;
79414;SDS011;68864;44.972;19.612;2023-05-29T00:47:35;6.18;;;4.35;;
79414;SDS011;68864;44.972;19.612;2023-05-29T00:50:02;6.28;;;5.38;;
79414;SDS011;68864;44.972;19.612;2023-05-29T00:52:29;6.93;;;4.93;;
79414;SDS011;68864;44.972;19.612;2023-05-29T00:54:56;9.50;;;4.82;;
79414;SDS011;68864;44.972;19.612;2023-05-29T00:57:26;5.18;;;4.53;;
79414;SDS011;68864;44.972;19.612;2023-05-29T01:02:20;7.85;;;4.53;;
79414;SDS011;68864;44.972;19.612;2023-05-29T01:04:48;5.35;;;4.45;;
79414;SDS011;68864;44.972;19.612;2023-05-29T01:07:19;7.97;;;3.90;;
79414;SDS011;68864;44.972;19.612;2023-05-29T01:09:46;5.20;;;1.42;;
79414;SDS011;68864;44.972;19.612;2023-05-29T01:12:16;5.32;;;4.82;;
79414;SDS011;68864;44.972;19.612;2023-05-29T01:15:11;5.68;;;4.88;;
79414;SDS011;68864;44.972;19.612;2023-05-29T01:17:47;5.88;;;5.03;;
79414;SDS011;68864;44.972;19.612;2023-05-29T01:20:30;4.22;;;3.55;;
79414;SDS011;68864;44.972;19.612;2023-05-29T01:23:06;8.35;;;4.63;;
79414;SDS011;68864;44.972;19.612;2023-05-29T01:25:50;6.95;;;5.55;;
79414;SDS011;68864;44.972;19.612;2023-05-29T01:28:27;5.55;;;4.97;;
79414;SDS011;68864;44.972;19.612;2023-05-29T01:33:26;4.00;;;3.58;;
79414;SDS011;68864;44.972;19.612;2023-05-29T01:35:53;6.10;;;4.32;;
79414;SDS011;68864;44.972;19.612;2023-05-29T01:38:20;5.30;;;4.80;;
79414;SDS011;68864;44.972;19.612;2023-05-29T01:40:47;6.40;;;5.80;;
79414;SDS011;68864;44.972;19.612;2023-05-29T01:43:14;7.03;;;5.13;;
79414;SDS011;68864;44.972;19.612;2023-05-29T01:48:09;6.40;;;4.10;;
79414;SDS011;68864;44.972;19.612;2023-05-29T01:50:36;6.43;;;4.13;;
79414;SDS011;68864;44.972;19.612;2023-05-29T01:53:04;6.85;;;5.80;;
79414;SDS011;68864;44.972;19.612;2023-05-29T01:55:30;6.78;;;5.07;;
79414;SDS011;68864;44.972;19.612;2023-05-29T01:57:57;2.45;;;0.88;;
79414;SDS011;68864;44.972;19.612;2023-05-29T02:00:25;6.07;;;4.68;;
79414;SDS011;68864;44.972;19.612;2023-05-29T02:02:53;13.93;;;4.32;;
79414;SDS011;68864;44.972;19.612;2023-05-29T02:05:20;5.43;;;4.57;;
79414;SDS011;68864;44.972;19.612;2023-05-29T02:07:47;6.25;;;4.68;;
79414;SDS011;68864;44.972;19.612;2023-05-29T02:10:14;6.15;;;3.38;;
79414;SDS011;68864;44.972;19.612;2023-05-29T02:12:41;4.15;;;3.75;;
79414;SDS011;68864;44.972;19.612;2023-05-29T02:15:08;6.68;;;4.30;;
79414;SDS011;68864;44.972;19.612;2023-05-29T02:17:36;8.43;;;4.85;;
79414;SDS011;68864;44.972;19.612;2023-05-29T02:20:04;6.63;;;4.15;;
79414;SDS011;68864;44.972;19.612;2023-05-29T02:22:32;6.93;;;4.05;;
79414;SDS011;68864;44.972;19.612;2023-05-29T02:24:59;5.63;;;4.50;;
79414;SDS011;68864;44.972;19.612;2023-05-29T02:27:25;6.70;;;5.53;;
79414;SDS011;68864;44.972;19.612;2023-05-29T02:29:52;5.85;;;4.68;;
79414;SDS011;68864;44.972;19.612;2023-05-29T02:32:19;5.07;;;4.55;;
79414;SDS011;68864;44.972;19.612;2023-05-29T02:34:47;7.80;;;5.45;;
79414;SDS011;68864;44.972;19.612;2023-05-29T02:37:16;7.25;;;1.33;;
79414;SDS011;68864;44.972;19.612;2023-05-29T02:39:42;6.28;;;2.85;;
79414;SDS011;68864;44.972;19.612;2023-05-29T02:42:09;8.07;;;5.22;;
79414;SDS011;68864;44.972;19.612;2023-05-29T02:44:36;6.45;;;4.53;;
79414;SDS011;68864;44.972;19.612;2023-05-29T02:47:03;5.57;;;3.75;;
79414;SDS011;68864;44.972;19.612;2023-05-29T02:49:30;6.65;;;4.43;;
79414;SDS011;68864;44.972;19.612;2023-05-29T02:51:56;9.38;;;5.82;;
79414;SDS011;68864;44.972;19.612;2023-05-29T02:54:24;8.68;;;5.13;;
79414;SDS011;68864;44.972;19.612;2023-05-29T02:56:52;10.60;;;5.68;;
79414;SDS011;68864;44.972;19.612;2023-05-29T02:59:18;7.40;;;1.65;;
79414;SDS011;68864;44.972;19.612;2023-05-29T03:01:45;6.13;;;4.40;;
79414;SDS011;68864;44.972;19.612;2023-05-29T03:04:13;6.32;;;4.38;;
79414;SDS011;68864;44.972;19.612;2023-05-29T03:06:42;6.43;;;5.45;;
79414;SDS011;68864;44.972;19.612;2023-05-29T03:09:09;7.70;;;5.38;;
79414;SDS011;68864;44.972;19.612;2023-05-29T03:11:37;6.88;;;5.07;;
79414;SDS011;68864;44.972;19.612;2023-05-29T03:14:05;6.18;;;4.97;;
79414;SDS011;68864;44.972;19.612;2023-05-29T03:16:32;7.75;;;4.70;;
79414;SDS011;68864;44.972;19.612;2023-05-29T03:19:01;4.75;;;1.75;;
79414;SDS011;68864;44.972;19.612;2023-05-29T03:23:54;7.20;;;5.80;;
79414;SDS011;68864;44.972;19.612;2023-05-29T03:26:21;9.10;;;6.10;;
79414;SDS011;68864;44.972;19.612;2023-05-29T03:28:49;12.27;;;6.15;;
79414;SDS011;68864;44.972;19.612;2023-05-29T03:31:16;8.93;;;7.28;;
79414;SDS011;68864;44.972;19.612;2023-05-29T03:33:42;10.27;;;5.97;;
79414;SDS011;68864;44.972;19.612;2023-05-29T03:36:10;12.55;;;7.82;;
79414;SDS011;68864;44.972;19.612;2023-05-29T03:41:04;8.88;;;6.07;;
79414;SDS011;68864;44.972;19.612;2023-05-29T03:43:30;12.52;;;7.90;;
79414;SDS011;68864;44.972;19.612;2023-05-29T03:45:58;9.77;;;6.85;;
79414;SDS011;68864;44.972;19.612;2023-05-29T03:48:25;16.35;;;6.60;;
79414;SDS011;68864;44.972;19.612;2023-05-29T03:50:52;12.30;;;7.18;;
79414;SDS011;68864;44.972;19.612;2023-05-29T03:53:19;15.43;;;7.88;;
79414;SDS011;68864;44.972;19.612;2023-05-29T03:55:45;12.90;;;7.88;;
79414;SDS011;68864;44.972;19.612;2023-05-29T03:58:12;10.98;;;7.38;;
79414;SDS011;68864;44.972;19.612;2023-05-29T04:00:39;14.10;;;8.85;;
79414;SDS011;68864;44.972;19.612;2023-05-29T04:03:07;12.88;;;8.65;;
79414;SDS011;68864;44.972;19.612;2023-05-29T04:05:34;12.68;;;7.93;;
79414;SDS011;68864;44.972;19.612;2023-05-29T04:08:01;22.45;;;13.88;;
79414;SDS011;68864;44.972;19.612;2023-05-29T04:10:29;18.30;;;11.02;;
79414;SDS011;68864;44.972;19.612;2023-05-29T04:12:59;11.40;;;8.13;;
79414;SDS011;68864;44.972;19.612;2023-05-29T04:15:26;12.80;;;7.35;;
79414;SDS011;68864;44.972;19.612;2023-05-29T04:17:53;12.32;;;7.45;;
79414;SDS011;68864;44.972;19.612;2023-05-29T04:20:21;12.95;;;9.45;;
79414;SDS011;68864;44.972;19.612;2023-05-29T04:22:48;20.05;;;10.13;;
79414;SDS011;68864;44.972;19.612;2023-05-29T04:25:15;14.80;;;12.15;;
79414;SDS011;68864;44.972;19.612;2023-05-29T04:27:43;10.43;;;5.28;;
79414;SDS011;68864;44.972;19.612;2023-05-29T04:30:14;7.75;;;4.35;;
79414;SDS011;68864;44.972;19.612;2023-05-29T04:32:41;13.32;;;8.27;;
79414;SDS011;68864;44.972;19.612;2023-05-29T04:37:37;12.88;;;8.25;;
79414;SDS011;68864;44.972;19.612;2023-05-29T04:40:04;15.73;;;7.90;;
79414;SDS011;68864;44.972;19.612;2023-05-29T04:42:34;13.00;;;6.28;;
79414;SDS011;68864;44.972;19.612;2023-05-29T04:45:01;11.50;;;9.15;;
79414;SDS011;68864;44.972;19.612;2023-05-29T04:47:29;14.05;;;9.73;;
79414;SDS011;68864;44.972;19.612;2023-05-29T04:49:58;11.82;;;8.38;;
79414;SDS011;68864;44.972;19.612;2023-05-29T04:52:25;13.02;;;9.32;;
79414;SDS011;68864;44.972;19.612;2023-05-29T04:54:53;11.23;;;8.75;;
79414;SDS011;68864;44.972;19.612;2023-05-29T04:57:20;14.88;;;9.50;;
79414;SDS011;68864;44.972;19.612;2023-05-29T04:59:47;23.88;;;12.93;;
79414;SDS011;68864;44.972;19.612;2023-05-29T05:02:13;25.55;;;18.25;;
79414;SDS011;68864;44.972;19.612;2023-05-29T05:04:40;18.95;;;11.70;;
79414;SDS011;68864;44.972;19.612;2023-05-29T05:07:07;18.63;;;13.30;;
79414;SDS011;68864;44.972;19.612;2023-05-29T05:09:35;16.40;;;12.52;;
79414;SDS011;68864;44.972;19.612;2023-05-29T05:12:03;13.77;;;8.27;;
79414;SDS011;68864;44.972;19.612;2023-05-29T05:14:30;12.07;;;9.90;;
79414;SDS011;68864;44.972;19.612;2023-05-29T05:16:57;14.77;;;10.10;;
79414;SDS011;68864;44.972;19.612;2023-05-29T05:19:24;14.15;;;8.95;;
79414;SDS011;68864;44.972;19.612;2023-05-29T05:21:51;16.10;;;7.47;;
79414;SDS011;68864;44.972;19.612;2023-05-29T05:24:17;14.82;;;7.13;;
79414;SDS011;68864;44.972;19.612;2023-05-29T05:29:12;22.25;;;7.72;;
79414;SDS011;68864;44.972;19.612;2023-05-29T05:31:39;17.98;;;10.05;;
79414;SDS011;68864;44.972;19.612;2023-05-29T05:34:06;34.05;;;20.90;;
79414;SDS011;68864;44.972;19.612;2023-05-29T05:36:33;32.90;;;21.38;;
79414;SDS011;68864;44.972;19.612;2023-05-29T05:38:59;17.08;;;10.55;;
79414;SDS011;68864;44.972;19.612;2023-05-29T05:41:26;18.80;;;12.27;;
79414;SDS011;68864;44.972;19.612;2023-05-29T05:43:53;18.52;;;12.35;;
79414;SDS011;68864;44.972;19.612;2023-05-29T05:46:21;18.65;;;12.13;;
79414;SDS011;68864;44.972;19.612;2023-05-29T05:48:47;18.33;;;9.50;;
79414;SDS011;68864;44.972;19.612;2023-05-29T05:51:15;17.75;;;9.70;;
79414;SDS011;68864;44.972;19.612;2023-05-29T05:53:42;10.88;;;8.93;;
79414;SDS011;68864;44.972;19.612;2023-05-29T05:56:09;12.98;;;8.07;;
79414;SDS011;68864;44.972;19.612;2023-05-29T05:58:35;7.93;;;2.40;;
79414;SDS011;68864;44.972;19.612;2023-05-29T06:01:02;9.30;;;7.35;;
79414;SDS011;68864;44.972;19.612;2023-05-29T06:03:30;10.07;;;6.50;;
79414;SDS011;68864;44.972;19.612;2023-05-29T06:05:58;12.15;;;7.13;;
79414;SDS011;68864;44.972;19.612;2023-05-29T06:08:25;14.90;;;6.97;;
79414;SDS011;68864;44.972;19.612;2023-05-29T06:10:51;8.88;;;6.55;;
79414;SDS011;68864;44.972;19.612;2023-05-29T06:13:18;11.65;;;6.95;;
79414;SDS011;68864;44.972;19.612;2023-05-29T06:15:45;9.50;;;7.45;;
79414;SDS011;68864;44.972;19.612;2023-05-29T06:18:12;10.02;;;7.45;;
79414;SDS011;68864;44.972;19.612;2023-05-29T06:20:40;9.45;;;7.25;;
79414;SDS011;68864;44.972;19.612;2023-05-29T06:23:07;9.65;;;7.13;;
79414;SDS011;68864;44.972;19.612;2023-05-29T06:25:34;10.98;;;8.23;;
79414;SDS011;68864;44.972;19.612;2023-05-29T06:28:00;12.23;;;10.82;;
79414;SDS011;68864;44.972;19.612;2023-05-29T06:30:30;12.02;;;7.05;;
79414;SDS011;68864;44.972;19.612;2023-05-29T06:32:58;11.00;;;6.20;;
79414;SDS011;68864;44.972;19.612;2023-05-29T06:35:25;10.98;;;6.88;;
79414;SDS011;68864;44.972;19.612;2023-05-29T06:37:53;14.40;;;8.57;;
79414;SDS011;68864;44.972;19.612;2023-05-29T06:40:20;15.95;;;11.13;;
79414;SDS011;68864;44.972;19.612;2023-05-29T06:42:46;12.85;;;9.30;;
79414;SDS011;68864;44.972;19.612;2023-05-29T06:45:13;9.35;;;7.40;;
79414;SDS011;68864;44.972;19.612;2023-05-29T06:50:07;22.73;;;14.15;;
79414;SDS011;68864;44.972;19.612;2023-05-29T06:52:34;14.80;;;10.00;;
79414;SDS011;68864;44.972;19.612;2023-05-29T06:55:03;12.32;;;9.35;;
79414;SDS011;68864;44.972;19.612;2023-05-29T06:57:30;12.57;;;9.75;;
79414;SDS011;68864;44.972;19.612;2023-05-29T06:59:57;19.33;;;13.00;;
79414;SDS011;68864;44.972;19.612;2023-05-29T07:04:50;27.52;;;13.40;;
79414;SDS011;68864;44.972;19.612;2023-05-29T07:07:17;13.20;;;10.23;;
79414;SDS011;68864;44.972;19.612;2023-05-29T07:09:44;14.18;;;8.32;;
79414;SDS011;68864;44.972;19.612;2023-05-29T07:12:12;10.70;;;7.85;;
79414;SDS011;68864;44.972;19.612;2023-05-29T07:14:38;8.52;;;6.65;;
79414;SDS011;68864;44.972;19.612;2023-05-29T07:17:05;8.32;;;7.15;;
79414;SDS011;68864;44.972;19.612;2023-05-29T07:19:32;7.07;;;5.50;;
79414;SDS011;68864;44.972;19.612;2023-05-29T07:21:59;8.65;;;7.72;;
79414;SDS011;68864;44.972;19.612;2023-05-29T07:24:26;8.60;;;6.93;;
79414;SDS011;68864;44.972;19.612;2023-05-29T07:26:53;11.27;;;7.40;;
79414;SDS011;68864;44.972;19.612;2023-05-29T07:29:21;9.60;;;7.35;;
79414;SDS011;68864;44.972;19.612;2023-05-29T07:31:48;10.32;;;6.65;;
79414;SDS011;68864;44.972;19.612;2023-05-29T07:34:15;10.45;;;5.97;;
79414;SDS011;68864;44.972;19.612;2023-05-29T07:36:59;8.23;;;7.35;;
79414;SDS011;68864;44.972;19.612;2023-05-29T07:39:27;10.40;;;7.20;;
79414;SDS011;68864;44.972;19.612;2023-05-29T07:44:22;12.75;;;7.68;;
79414;SDS011;68864;44.972;19.612;2023-05-29T07:46:49;8.20;;;4.43;;
79414;SDS011;68864;44.972;19.612;2023-05-29T07:49:16;11.52;;;7.53;;
79414;SDS011;68864;44.972;19.612;2023-05-29T07:51:43;10.57;;;8.32;;
79414;SDS011;68864;44.972;19.612;2023-05-29T07:54:09;18.13;;;11.15;;
79414;SDS011;68864;44.972;19.612;2023-05-29T07:59:03;9.70;;;7.82;;
79414;SDS011;68864;44.972;19.612;2023-05-29T08:01:32;20.30;;;10.65;;
79414;SDS011;68864;44.972;19.612;2023-05-29T08:03:58;10.25;;;7.90;;
79414;SDS011;68864;44.972;19.612;2023-05-29T08:08:52;14.35;;;9.43;;
79414;SDS011;68864;44.972;19.612;2023-05-29T08:11:19;10.88;;;9.55;;
79414;SDS011;68864;44.972;19.612;2023-05-29T08:13:46;37.20;;;25.88;;
79414;SDS011;68864;44.972;19.612;2023-05-29T08:16:12;15.45;;;11.77;;
79414;SDS011;68864;44.972;19.612;2023-05-29T08:18:43;12.18;;;9.80;;
79414;SDS011;68864;44.972;19.612;2023-05-29T08:21:10;19.42;;;13.98;;
79414;SDS011;68864;44.972;19.612;2023-05-29T08:23:37;13.70;;;9.40;;
79414;SDS011;68864;44.972;19.612;2023-05-29T08:26:04;13.23;;;8.77;;
79414;SDS011;68864;44.972;19.612;2023-05-29T08:28:31;12.15;;;9.73;;
79414;SDS011;68864;44.972;19.612;2023-05-29T08:30:57;14.80;;;9.35;;
79414;SDS011;68864;44.972;19.612;2023-05-29T08:33:24;12.57;;;9.55;;
79414;SDS011;68864;44.972;19.612;2023-05-29T08:35:53;14.07;;;9.80;;
79414;SDS011;68864;44.972;19.612;2023-05-29T08:38:19;10.13;;;8.52;;
79414;SDS011;68864;44.972;19.612;2023-05-29T08:40:47;12.93;;;9.00;;
79414;SDS011;68864;44.972;19.612;2023-05-29T08:43:15;10.50;;;5.43;;
79414;SDS011;68864;44.972;19.612;2023-05-29T08:45:45;11.98;;;7.28;;
79414;SDS011;68864;44.972;19.612;2023-05-29T08:48:17;13.05;;;9.65;;
79414;SDS011;68864;44.972;19.612;2023-05-29T08:50:48;10.98;;;9.88;;
79414;SDS011;68864;44.972;19.612;2023-05-29T08:53:20;12.90;;;8.50;;
79414;SDS011;68864;44.972;19.612;2023-05-29T08:55:47;13.45;;;9.02;;
79414;SDS011;68864;44.972;19.612;2023-05-29T08:58:16;14.02;;;8.07;;
79414;SDS011;68864;44.972;19.612;2023-05-29T09:00:43;14.38;;;9.30;;
79414;SDS011;68864;44.972;19.612;2023-05-29T09:03:12;10.73;;;7.72;;
79414;SDS011;68864;44.972;19.612;2023-05-29T09:05:39;14.32;;;7.63;;
79414;SDS011;68864;44.972;19.612;2023-05-29T09:08:06;15.73;;;10.57;;
79414;SDS011;68864;44.972;19.612;2023-05-29T09:10:36;14.68;;;10.50;;
79414;SDS011;68864;44.972;19.612;2023-05-29T09:13:03;14.13;;;10.18;;
79414;SDS011;68864;44.972;19.612;2023-05-29T09:17:57;12.43;;;5.40;;
79414;SDS011;68864;44.972;19.612;2023-05-29T09:20:25;18.65;;;12.45;;
79414;SDS011;68864;44.972;19.612;2023-05-29T09:22:53;16.95;;;12.05;;
79414;SDS011;68864;44.972;19.612;2023-05-29T09:25:20;15.38;;;8.85;;
79414;SDS011;68864;44.972;19.612;2023-05-29T09:27:52;13.80;;;10.00;;
79414;SDS011;68864;44.972;19.612;2023-05-29T09:33:03;17.88;;;9.90;;
79414;SDS011;68864;44.972;19.612;2023-05-29T09:35:32;16.55;;;11.80;;
79414;SDS011;68864;44.972;19.612;2023-05-29T09:38:00;15.57;;;6.85;;
79414;SDS011;68864;44.972;19.612;2023-05-29T09:40:29;12.00;;;8.38;;
79414;SDS011;68864;44.972;19.612;2023-05-29T09:43:02;15.18;;;9.40;;
79414;SDS011;68864;44.972;19.612;2023-05-29T09:45:36;11.27;;;7.13;;
79414;SDS011;68864;44.972;19.612;2023-05-29T09:48:04;13.40;;;7.47;;
79414;SDS011;68864;44.972;19.612;2023-05-29T09:50:32;9.43;;;8.50;;
79414;SDS011;68864;44.972;19.612;2023-05-29T09:53:00;13.00;;;7.38;;
79414;SDS011;68864;44.972;19.612;2023-05-29T09:55:27;14.07;;;9.85;;
79414;SDS011;68864;44.972;19.612;2023-05-29T09:57:57;14.77;;;9.82;;
79414;SDS011;68864;44.972;19.612;2023-05-29T10:00:26;10.25;;;6.70;;
79414;SDS011;68864;44.972;19.612;2023-05-29T10:02:53;9.43;;;8.15;;
79414;SDS011;68864;44.972;19.612;2023-05-29T10:05:20;9.88;;;8.05;;
79414;SDS011;68864;44.972;19.612;2023-05-29T10:10:18;5.70;;;5.03;;
79414;SDS011;68864;44.972;19.612;2023-05-29T10:12:47;8.07;;;6.72;;
79414;SDS011;68864;44.972;19.612;2023-05-29T10:15:16;16.70;;;15.20;;
79414;SDS011;68864;44.972;19.612;2023-05-29T10:17:49;14.63;;;13.13;;
79414;SDS011;68864;44.972;19.612;2023-05-29T10:20:17;12.13;;;10.50;;
79414;SDS011;68864;44.972;19.612;2023-05-29T10:22:47;10.13;;;8.07;;
79414;SDS011;68864;44.972;19.612;2023-05-29T10:25:18;7.68;;;6.93;;
79414;SDS011;68864;44.972;19.612;2023-05-29T10:27:46;10.95;;;8.27;;
79414;SDS011;68864;44.972;19.612;2023-05-29T10:30:16;9.98;;;8.27;;
79414;SDS011;68864;44.972;19.612;2023-05-29T10:32:59;9.25;;;7.93;;
79414;SDS011;68864;44.972;19.612;2023-05-29T10:35:40;9.38;;;8.45;;
79414;SDS011;68864;44.972;19.612;2023-05-29T10:38:12;10.90;;;9.32;;
79414;SDS011;68864;44.972;19.612;2023-05-29T10:40:42;12.52;;;10.93;;
79414;SDS011;68864;44.972;19.612;2023-05-29T10:43:09;12.02;;;10.73;;
79414;SDS011;68864;44.972;19.612;2023-05-29T10:45:57;13.13;;;11.27;;
79414;SDS011;68864;44.972;19.612;2023-05-29T10:48:37;10.75;;;9.60;;
79414;SDS011;68864;44.972;19.612;2023-05-29T10:51:06;13.98;;;9.60;;
79414;SDS011;68864;44.972;19.612;2023-05-29T10:53:33;7.93;;;7.05;;
79414;SDS011;68864;44.972;19.612;2023-05-29T10:56:08;6.80;;;4.28;;
79414;SDS011;68864;44.972;19.612;2023-05-29T10:58:41;8.70;;;7.28;;
79414;SDS011;68864;44.972;19.612;2023-05-29T11:03:35;9.57;;;7.43;;
79414;SDS011;68864;44.972;19.612;2023-05-29T11:06:04;11.00;;;8.15;;
79414;SDS011;68864;44.972;19.612;2023-05-29T11:08:33;14.45;;;6.88;;
79414;SDS011;68864;44.972;19.612;2023-05-29T11:11:01;10.75;;;7.68;;
79414;SDS011;68864;44.972;19.612;2023-05-29T11:13:31;13.95;;;8.88;;
79414;SDS011;68864;44.972;19.612;2023-05-29T11:18:47;13.43;;;12.13;;
79414;SDS011;68864;44.972;19.612;2023-05-29T11:21:32;10.00;;;7.43;;
79414;SDS011;68864;44.972;19.612;2023-05-29T11:24:01;11.45;;;7.80;;
79414;SDS011;68864;44.972;19.612;2023-05-29T11:26:30;9.68;;;8.35;;
79414;SDS011;68864;44.972;19.612;2023-05-29T11:28:58;14.15;;;9.55;;
79414;SDS011;68864;44.972;19.612;2023-05-29T11:31:25;13.60;;;8.10;;
79414;SDS011;68864;44.972;19.612;2023-05-29T11:33:58;9.48;;;8.45;;
79414;SDS011;68864;44.972;19.612;2023-05-29T11:36:26;12.07;;;9.75;;
79414;SDS011;68864;44.972;19.612;2023-05-29T11:38:55;11.20;;;10.13;;
79414;SDS011;68864;44.972;19.612;2023-05-29T11:41:22;15.45;;;10.10;;
79414;SDS011;68864;44.972;19.612;2023-05-29T11:43:56;11.93;;;9.40;;
79414;SDS011;68864;44.972;19.612;2023-05-29T11:46:23;9.75;;;8.75;;
79414;SDS011;68864;44.972;19.612;2023-05-29T11:48:51;7.35;;;5.03;;
79414;SDS011;68864;44.972;19.612;2023-05-29T11:51:18;13.02;;;8.70;;
79414;SDS011;68864;44.972;19.612;2023-05-29T11:56:14;10.35;;;7.97;;
79414;SDS011;68864;44.972;19.612;2023-05-29T11:58:42;10.25;;;9.25;;
79414;SDS011;68864;44.972;19.612;2023-05-29T12:01:09;9.85;;;8.73;;
79414;SDS011;68864;44.972;19.612;2023-05-29T12:06:06;12.38;;;9.88;;
79414;SDS011;68864;44.972;19.612;2023-05-29T12:08:33;11.98;;;8.63;;
79414;SDS011;68864;44.972;19.612;2023-05-29T12:11:00;9.40;;;7.53;;
79414;SDS011;68864;44.972;19.612;2023-05-29T12:15:55;11.07;;;9.48;;
79414;SDS011;68864;44.972;19.612;2023-05-29T12:18:24;16.55;;;9.60;;
79414;SDS011;68864;44.972;19.612;2023-05-29T12:20:56;13.20;;;9.77;;
79414;SDS011;68864;44.972;19.612;2023-05-29T12:23:24;16.58;;;12.85;;
79414;SDS011;68864;44.972;19.612;2023-05-29T12:25:51;10.18;;;9.25;;
79414;SDS011;68864;44.972;19.612;2023-05-29T12:28:18;14.73;;;13.18;;
79414;SDS011;68864;44.972;19.612;2023-05-29T12:30:48;13.80;;;10.02;;
79414;SDS011;68864;44.972;19.612;2023-05-29T12:33:27;12.77;;;10.30;;
79414;SDS011;68864;44.972;19.612;2023-05-29T12:36:00;12.75;;;9.20;;
79414;SDS011;68864;44.972;19.612;2023-05-29T12:38:27;14.35;;;9.68;;
79414;SDS011;68864;44.972;19.612;2023-05-29T12:40:55;16.27;;;14.55;;
79414;SDS011;68864;44.972;19.612;2023-05-29T12:43:22;11.82;;;9.98;;
79414;SDS011;68864;44.972;19.612;2023-05-29T12:45:55;16.15;;;11.55;;
79414;SDS011;68864;44.972;19.612;2023-05-29T12:48:25;15.75;;;12.38;;
79414;SDS011;68864;44.972;19.612;2023-05-29T12:50:53;9.85;;;6.30;;
79414;SDS011;68864;44.972;19.612;2023-05-29T12:53:20;14.02;;;9.27;;
79414;SDS011;68864;44.972;19.612;2023-05-29T12:55:47;12.90;;;9.38;;
79414;SDS011;68864;44.972;19.612;2023-05-29T12:58:15;7.70;;;5.85;;
79414;SDS011;68864;44.972;19.612;2023-05-29T13:00:42;11.38;;;10.20;;
79414;SDS011;68864;44.972;19.612;2023-05-29T13:03:11;16.00;;;12.95;;
79414;SDS011;68864;44.972;19.612;2023-05-29T13:05:39;12.45;;;10.43;;
79414;SDS011;68864;44.972;19.612;2023-05-29T13:08:06;12.82;;;11.48;;
79414;SDS011;68864;44.972;19.612;2023-05-29T13:10:33;13.63;;;12.23;;
79414;SDS011;68864;44.972;19.612;2023-05-29T13:13:00;11.48;;;10.38;;
79414;SDS011;68864;44.972;19.612;2023-05-29T13:15:27;11.50;;;10.32;;
79414;SDS011;68864;44.972;19.612;2023-05-29T13:17:54;9.48;;;8.45;;
79414;SDS011;68864;44.972;19.612;2023-05-29T13:20:22;11.60;;;10.50;;
79414;SDS011;68864;44.972;19.612;2023-05-29T13:22:49;13.05;;;10.88;;
79414;SDS011;68864;44.972;19.612;2023-05-29T13:27:45;14.25;;;10.63;;
79414;SDS011;68864;44.972;19.612;2023-05-29T13:30:12;20.25;;;15.93;;
79414;SDS011;68864;44.972;19.612;2023-05-29T13:32:42;17.45;;;15.65;;
79414;SDS011;68864;44.972;19.612;2023-05-29T13:35:09;15.73;;;12.48;;
79414;SDS011;68864;44.972;19.612;2023-05-29T13:37:37;12.98;;;10.68;;
79414;SDS011;68864;44.972;19.612;2023-05-29T13:40:05;11.32;;;10.20;;
79414;SDS011;68864;44.972;19.612;2023-05-29T13:42:34;9.30;;;8.20;;
79414;SDS011;68864;44.972;19.612;2023-05-29T13:45:00;16.67;;;13.35;;
79414;SDS011;68864;44.972;19.612;2023-05-29T13:47:27;9.20;;;5.82;;
79414;SDS011;68864;44.972;19.612;2023-05-29T13:49:56;12.90;;;10.43;;
79414;SDS011;68864;44.972;19.612;2023-05-29T13:54:52;12.43;;;9.52;;
79414;SDS011;68864;44.972;19.612;2023-05-29T13:57:18;7.10;;;6.38;;
79414;SDS011;68864;44.972;19.612;2023-05-29T13:59:45;9.73;;;8.73;;
79414;SDS011;68864;44.972;19.612;2023-05-29T14:02:12;12.30;;;11.07;;
79414;SDS011;68864;44.972;19.612;2023-05-29T14:04:39;11.60;;;10.60;;
79414;SDS011;68864;44.972;19.612;2023-05-29T14:07:07;11.00;;;10.02;;
79414;SDS011;68864;44.972;19.612;2023-05-29T14:09:34;10.93;;;9.93;;
79414;SDS011;68864;44.972;19.612;2023-05-29T14:12:02;11.35;;;10.10;;
79414;SDS011;68864;44.972;19.612;2023-05-29T14:14:31;8.38;;;6.10;;
79414;SDS011;68864;44.972;19.612;2023-05-29T14:16:59;12.57;;;11.05;;
79414;SDS011;68864;44.972;19.612;2023-05-29T14:19:27;13.40;;;12.10;;
79414;SDS011;68864;44.972;19.612;2023-05-29T14:21:53;10.63;;;8.85;;
79414;SDS011;68864;44.972;19.612;2023-05-29T14:24:20;11.55;;;10.43;;
79414;SDS011;68864;44.972;19.612;2023-05-29T14:26:47;11.95;;;9.57;;
79414;SDS011;68864;44.972;19.612;2023-05-29T14:29:16;14.85;;;13.32;;
79414;SDS011;68864;44.972;19.612;2023-05-29T14:31:43;14.25;;;10.07;;
79414;SDS011;68864;44.972;19.612;2023-05-29T14:36:37;14.35;;;9.93;;
79414;SDS011;68864;44.972;19.612;2023-05-29T14:39:05;8.80;;;7.95;;
79414;SDS011;68864;44.972;19.612;2023-05-29T14:43:58;7.85;;;6.20;;
79414;SDS011;68864;44.972;19.612;2023-05-29T14:46:26;10.48;;;5.63;;
79414;SDS011;68864;44.972;19.612;2023-05-29T14:48:56;9.30;;;4.88;;
79414;SDS011;68864;44.972;19.612;2023-05-29T14:51:23;7.45;;;5.13;;
79414;SDS011;68864;44.972;19.612;2023-05-29T14:53:50;13.68;;;7.30;;
79414;SDS011;68864;44.972;19.612;2023-05-29T14:58:44;8.10;;;4.65;;
79414;SDS011;68864;44.972;19.612;2023-05-29T15:01:13;10.68;;;6.32;;
79414;SDS011;68864;44.972;19.612;2023-05-29T15:06:08;8.38;;;5.95;;
79414;SDS011;68864;44.972;19.612;2023-05-29T15:08:36;11.40;;;6.50;;
79414;SDS011;68864;44.972;19.612;2023-05-29T15:11:04;16.38;;;7.03;;
79414;SDS011;68864;44.972;19.612;2023-05-29T15:15:57;9.60;;;6.72;;
79414;SDS011;68864;44.972;19.612;2023-05-29T15:18:25;12.57;;;5.47;;
79414;SDS011;68864;44.972;19.612;2023-05-29T15:20:54;15.90;;;6.38;;
79414;SDS011;68864;44.972;19.612;2023-05-29T15:23:21;11.65;;;5.03;;
79414;SDS011;68864;44.972;19.612;2023-05-29T15:28:15;8.65;;;6.50;;
79414;SDS011;68864;44.972;19.612;2023-05-29T15:33:08;9.63;;;5.88;;
79414;SDS011;68864;44.972;19.612;2023-05-29T15:35:36;9.23;;;4.40;;
79414;SDS011;68864;44.972;19.612;2023-05-29T15:38:04;9.38;;;4.32;;
79414;SDS011;68864;44.972;19.612;2023-05-29T15:40:31;6.22;;;5.22;;
79414;SDS011;68864;44.972;19.612;2023-05-29T15:42:58;7.20;;;4.43;;